createdAt,value
2022-10-30T00:00:48.451Z,76
2022-10-30T00:01:52.918Z,74
2022-10-30T00:02:57.607Z,73
2022-10-30T00:04:01.827Z,72
2022-10-30T00:05:06.283Z,66
2022-10-30T00:06:13.514Z,62
2022-10-30T00:07:18.035Z,65
2022-10-30T00:08:22.532Z,68
2022-10-30T00:09:26.853Z,72
2022-10-30T00:10:31.212Z,71
2022-10-30T00:11:36.496Z,73
2022-10-30T00:12:40.908Z,64
2022-10-30T00:13:45.618Z,72
2022-10-30T00:14:50.177Z,67
2022-10-30T00:15:54.672Z,70
2022-10-30T00:16:59.241Z,65
2022-10-30T00:18:04.081Z,74
2022-10-30T00:19:08.576Z,76
2022-10-30T00:20:13.039Z,72
2022-10-30T00:21:17.608Z,77
2022-10-30T00:22:21.687Z,79
2022-10-30T00:23:26.254Z,76
2022-10-30T00:24:30.304Z,75
2022-10-30T00:25:36.415Z,81
2022-10-30T00:26:40.487Z,78
2022-10-30T00:27:44.615Z,75
2022-10-30T00:28:49.172Z,75
2022-10-30T00:29:53.256Z,79
2022-10-30T00:30:59.431Z,74
2022-10-30T00:32:04.000Z,77
2022-10-30T00:33:08.104Z,75
2022-10-30T00:34:12.281Z,80
2022-10-30T00:35:17.008Z,77
2022-10-30T00:36:23.456Z,68
2022-10-30T00:37:28.825Z,71
2022-10-30T00:38:33.052Z,69
2022-10-30T00:39:37.225Z,76
2022-10-30T00:40:41.849Z,77
2022-10-30T00:41:46.510Z,83
2022-10-30T00:42:51.655Z,81
2022-10-30T00:43:56.060Z,75
2022-10-30T00:45:00.575Z,75
2022-10-30T00:46:05.080Z,82
2022-10-30T00:47:17.617Z,79
2022-10-30T00:48:22.088Z,79
2022-10-30T00:49:27.056Z,84
2022-10-30T00:50:37.018Z,79
2022-10-30T00:51:41.424Z,81
2022-10-30T00:52:51.480Z,85
2022-10-30T00:53:55.559Z,80
2022-10-30T00:55:00.252Z,77
2022-10-30T00:56:07.532Z,80
2022-10-30T00:57:13.436Z,75
2022-10-30T00:58:17.683Z,69
2022-10-30T00:59:22.312Z,74
2022-10-30T01:00:30.351Z,81
2022-10-30T01:01:35.033Z,80
2022-10-30T01:02:41.562Z,76
2022-10-30T01:03:45.539Z,79
2022-10-30T01:04:49.656Z,78
2022-10-30T01:05:53.771Z,80
2022-10-30T01:06:58.321Z,84
2022-10-30T01:08:02.860Z,83
2022-10-30T01:09:07.070Z,85
2022-10-30T01:10:11.311Z,86
2022-10-30T01:11:15.788Z,87
2022-10-30T01:12:20.743Z,89
2022-10-30T01:13:25.408Z,86
2022-10-30T01:14:30.008Z,85
2022-10-30T01:15:35.192Z,86
2022-10-30T01:16:39.631Z,85
2022-10-30T01:17:55.716Z,80
2022-10-30T01:19:10.235Z,86
2022-10-30T01:20:22.411Z,82
2022-10-30T01:21:35.125Z,88
2022-10-30T01:22:47.954Z,80
2022-10-30T01:23:57.513Z,82
2022-10-30T01:25:12.872Z,80
2022-10-30T01:26:27.565Z,83
2022-10-30T01:27:37.265Z,77
2022-10-30T01:28:52.049Z,79
2022-10-30T01:30:04.192Z,80
2022-10-30T01:31:16.576Z,80
2022-10-30T01:32:27.228Z,77
2022-10-30T01:33:42.015Z,73
2022-10-30T01:34:54.161Z,75
2022-10-30T01:36:03.816Z,73
2022-10-30T01:37:11.104Z,66
2022-10-30T01:38:18.220Z,76
2022-10-30T01:39:22.820Z,72
2022-10-30T01:40:29.955Z,76
2022-10-30T01:41:34.518Z,74
2022-10-30T01:42:40.435Z,74
2022-10-30T01:43:45.167Z,65
2022-10-30T01:44:49.524Z,77
2022-10-30T01:45:54.029Z,72
2022-10-30T01:47:06.704Z,74
2022-10-30T01:48:14.563Z,64
2022-10-30T01:49:27.154Z,65
2022-10-30T01:50:39.265Z,69
2022-10-30T01:51:54.072Z,68
2022-10-30T01:53:03.632Z,68
2022-10-30T01:54:12.895Z,81
2022-10-30T01:55:25.490Z,69
2022-10-30T01:56:37.770Z,73
2022-10-30T01:57:44.919Z,71
2022-10-30T01:58:52.451Z,71
2022-10-30T02:00:01.646Z,72
2022-10-30T02:01:09.014Z,67
2022-10-30T02:02:13.646Z,64
2022-10-30T02:03:18.420Z,76
2022-10-30T02:04:22.872Z,67
2022-10-30T02:05:27.236Z,68
2022-10-30T02:06:34.304Z,69
2022-10-30T02:07:38.628Z,76
2022-10-30T02:08:44.747Z,69
2022-10-30T02:09:49.141Z,71
2022-10-30T02:10:53.647Z,70
2022-10-30T02:11:57.824Z,70
2022-10-30T02:13:02.667Z,74
2022-10-30T02:14:06.971Z,67
2022-10-30T02:15:11.080Z,76
2022-10-30T02:16:15.687Z,71
2022-10-30T02:17:20.408Z,73
2022-10-30T02:18:24.808Z,70
2022-10-30T02:19:29.484Z,70
2022-10-30T02:20:33.963Z,79
2022-10-30T02:21:38.089Z,72
2022-10-30T02:22:42.742Z,68
2022-10-30T02:23:47.211Z,74
2022-10-30T02:24:54.475Z,71
2022-10-30T02:25:59.143Z,78
2022-10-30T02:27:03.784Z,69
2022-10-30T02:28:08.092Z,70
2022-10-30T02:29:12.314Z,70
2022-10-30T02:30:18.472Z,72
2022-10-30T02:31:22.944Z,66
2022-10-30T02:32:27.301Z,75
2022-10-30T02:33:31.556Z,68
2022-10-30T02:34:35.763Z,67
2022-10-30T02:35:41.591Z,71
2022-10-30T02:36:45.829Z,61
2022-10-30T02:37:50.455Z,62
2022-10-30T02:38:54.997Z,59
2022-10-30T02:39:59.507Z,70
2022-10-30T02:41:04.795Z,68
2022-10-30T02:42:10.469Z,63
2022-10-30T02:43:15.219Z,66
2022-10-30T02:44:19.576Z,74
2022-10-30T02:45:24.102Z,70
2022-10-30T02:46:28.747Z,70
2022-10-30T02:47:34.515Z,73
2022-10-30T02:48:38.864Z,73
2022-10-30T02:49:43.321Z,72
2022-10-30T02:50:47.430Z,83
2022-10-30T02:51:52.041Z,77
2022-10-30T02:52:58.786Z,82
2022-10-30T02:54:02.773Z,83
2022-10-30T02:55:07.267Z,82
2022-10-30T02:56:11.407Z,82
2022-10-30T02:57:15.468Z,81
2022-10-30T02:58:20.479Z,79
2022-10-30T02:59:24.678Z,85
2022-10-30T03:00:29.612Z,90
2022-10-30T03:01:34.122Z,82
2022-10-30T03:02:38.651Z,83
2022-10-30T03:03:43.523Z,83
2022-10-30T03:04:48.023Z,87
2022-10-30T03:05:53.504Z,86
2022-10-30T03:06:57.792Z,94
2022-10-30T03:08:02.580Z,79
2022-10-30T03:09:06.868Z,89
2022-10-30T03:10:11.484Z,88
2022-10-30T03:11:18.452Z,89
2022-10-30T03:12:22.756Z,85
2022-10-30T03:13:27.262Z,87
2022-10-30T03:14:31.407Z,90
2022-10-30T03:15:36.040Z,88
2022-10-30T03:16:40.636Z,90
2022-10-30T03:17:45.208Z,97
2022-10-30T03:18:49.606Z,92
2022-10-30T03:19:53.907Z,92
2022-10-30T03:20:59.199Z,95
2022-10-30T03:22:03.411Z,94
2022-10-30T03:23:07.533Z,91
2022-10-30T03:24:11.834Z,89
2022-10-30T03:25:16.291Z,95
2022-10-30T03:26:20.743Z,90
2022-10-30T03:27:25.467Z,87
2022-10-30T03:28:30.057Z,82
2022-10-30T03:29:34.859Z,86
2022-10-30T03:30:39.395Z,84
2022-10-30T03:31:43.807Z,80
2022-10-30T03:32:48.307Z,78
2022-10-30T03:33:52.824Z,91
2022-10-30T03:34:58.428Z,81
2022-10-30T03:36:02.487Z,80
2022-10-30T03:37:07.115Z,82
2022-10-30T03:38:11.727Z,85
2022-10-30T03:39:15.875Z,82
2022-10-30T03:40:22.542Z,86
2022-10-30T03:41:27.019Z,85
2022-10-30T03:42:31.667Z,84
2022-10-30T03:43:36.158Z,81
2022-10-30T03:44:40.461Z,86
2022-10-30T03:45:44.883Z,84
2022-10-30T03:46:49.359Z,82
2022-10-30T03:47:53.539Z,85
2022-10-30T03:48:58.064Z,78
2022-10-30T03:50:02.492Z,83
2022-10-30T03:51:07.234Z,86
2022-10-30T03:52:12.000Z,89
2022-10-30T03:53:16.487Z,86
2022-10-30T03:54:21.080Z,90
2022-10-30T03:55:25.760Z,91
2022-10-30T03:56:30.428Z,80
2022-10-30T03:57:34.807Z,82
2022-10-30T03:58:39.391Z,85
2022-10-30T03:59:43.927Z,82
2022-10-30T04:00:50.463Z,86
2022-10-30T04:02:56.920Z,86
2022-10-30T04:05:03.327Z,86
2022-10-30T04:06:10.455Z,84
2022-10-30T04:07:14.571Z,87
2022-10-30T04:08:18.648Z,85
2022-10-30T04:09:23.367Z,87
2022-10-30T04:10:27.907Z,88
2022-10-30T04:11:32.518Z,89
2022-10-30T04:12:36.920Z,95
2022-10-30T04:13:41.113Z,95
2022-10-30T04:14:45.619Z,95
2022-10-30T04:15:55.902Z,93
2022-10-30T04:16:54.266Z,90
2022-10-30T04:17:58.576Z,88
2022-10-30T04:19:02.617Z,90
2022-10-30T04:20:06.978Z,91
2022-10-30T04:21:11.620Z,87
2022-10-30T04:22:18.455Z,90
2022-10-30T04:23:22.843Z,90
2022-10-30T04:24:27.468Z,100
2022-10-30T04:25:31.928Z,92
2022-10-30T04:26:36.001Z,92
2022-10-30T04:27:40.907Z,91
2022-10-30T04:28:45.383Z,90
2022-10-30T04:29:49.787Z,91
2022-10-30T04:30:54.355Z,90
2022-10-30T04:31:58.511Z,93
2022-10-30T04:33:04.469Z,88
2022-10-30T04:34:08.624Z,96
2022-10-30T04:35:12.895Z,94
2022-10-30T04:36:17.343Z,91
2022-10-30T04:37:21.939Z,92
2022-10-30T04:38:27.455Z,91
2022-10-30T04:39:31.631Z,96
2022-10-30T04:40:36.206Z,90
2022-10-30T04:41:40.775Z,90
2022-10-30T04:42:45.359Z,89
2022-10-30T04:43:52.510Z,90
2022-10-30T04:44:57.095Z,91
2022-10-30T04:46:01.619Z,91
2022-10-30T04:47:06.228Z,85
2022-10-30T04:48:10.771Z,89
2022-10-30T04:49:15.607Z,87
2022-10-30T04:50:19.958Z,88
2022-10-30T04:51:24.086Z,91
2022-10-30T04:52:28.687Z,87
2022-10-30T04:53:33.408Z,91
2022-10-30T04:54:37.933Z,88
2022-10-30T04:55:42.354Z,91
2022-10-30T04:56:46.467Z,88
2022-10-30T04:57:50.951Z,92
2022-10-30T04:58:58.040Z,90
2022-10-30T05:00:03.529Z,89
2022-10-30T05:01:08.287Z,91
2022-10-30T05:02:12.554Z,87
2022-10-30T05:03:16.543Z,79
2022-10-30T05:04:21.095Z,83
2022-10-30T05:05:25.467Z,81
2022-10-30T05:06:29.718Z,90
2022-10-30T05:07:34.007Z,91
2022-10-30T05:08:38.563Z,100
2022-10-30T05:09:42.983Z,98
2022-10-30T05:10:49.523Z,94
2022-10-30T05:11:57.339Z,92
2022-10-30T05:12:58.304Z,97
2022-10-30T05:14:02.860Z,95
2022-10-30T05:15:07.595Z,100
2022-10-30T05:16:14.494Z,101
2022-10-30T05:17:18.794Z,89
2022-10-30T05:18:23.459Z,95
2022-10-30T05:19:27.791Z,95
2022-10-30T05:20:31.923Z,97
2022-10-30T05:21:36.671Z,101
2022-10-30T05:22:41.179Z,95
2022-10-30T05:23:45.726Z,88
2022-10-30T05:24:50.303Z,82
2022-10-30T05:25:54.700Z,90
2022-10-30T05:26:58.891Z,95
2022-10-30T05:28:03.519Z,91
2022-10-30T05:29:07.999Z,102
2022-10-30T05:30:12.604Z,96
2022-10-30T05:31:17.595Z,97
2022-10-30T05:32:25.515Z,105
2022-10-30T05:33:29.979Z,104
2022-10-30T05:34:34.445Z,113
2022-10-30T05:35:39.185Z,107
2022-10-30T05:36:43.792Z,111
2022-10-30T05:37:49.534Z,106
2022-10-30T05:38:53.867Z,111
2022-10-30T05:39:58.585Z,106
2022-10-30T05:41:02.891Z,111
2022-10-30T05:42:09.861Z,108
2022-10-30T05:43:12.531Z,113
2022-10-30T05:44:28.755Z,110
2022-10-30T05:45:21.450Z,111
2022-10-30T05:46:25.799Z,116
2022-10-30T05:47:29.966Z,116
2022-10-30T05:48:37.508Z,107
2022-10-30T05:49:41.742Z,115
2022-10-30T05:50:46.171Z,117
2022-10-30T05:51:50.791Z,114
2022-10-30T05:52:55.188Z,118
2022-10-30T05:54:00.686Z,114
2022-10-30T05:55:05.130Z,112
2022-10-30T05:56:09.811Z,113
2022-10-30T05:57:14.170Z,115
2022-10-30T05:58:18.743Z,115
2022-10-30T05:59:24.499Z,107
2022-10-30T06:00:29.535Z,112
2022-10-30T06:01:34.346Z,117
2022-10-30T06:02:38.673Z,114
2022-10-30T06:03:44.226Z,117
2022-10-30T06:04:49.636Z,118
2022-10-30T06:05:54.264Z,121
2022-10-30T06:06:58.348Z,114
2022-10-30T06:08:02.431Z,119
2022-10-30T06:09:07.103Z,117
2022-10-30T06:10:11.650Z,118
2022-10-30T06:11:16.286Z,115
2022-10-30T06:12:20.915Z,109
2022-10-30T06:13:25.791Z,117
2022-10-30T06:14:30.103Z,118
2022-10-30T06:15:35.531Z,114
2022-10-30T06:16:39.661Z,107
2022-10-30T06:17:44.322Z,116
2022-10-30T06:18:51.674Z,121
2022-10-30T06:19:55.842Z,109
2022-10-30T06:20:59.938Z,108
2022-10-30T06:22:04.606Z,108
2022-10-30T06:23:09.467Z,111
2022-10-30T06:24:13.726Z,117
2022-10-30T06:25:17.786Z,114
2022-10-30T06:26:21.810Z,123
2022-10-30T06:27:26.055Z,116
2022-10-30T06:28:30.816Z,111
2022-10-30T06:29:35.071Z,108
2022-10-30T06:30:39.175Z,103
2022-10-30T06:31:43.742Z,115
2022-10-30T06:32:48.442Z,110
2022-10-30T06:33:57.954Z,102
2022-10-30T06:35:02.647Z,112
2022-10-30T06:36:07.674Z,109
2022-10-30T06:37:12.438Z,107
2022-10-30T06:38:16.960Z,121
2022-10-30T06:39:21.562Z,118
2022-10-30T06:40:26.010Z,116
2022-10-30T06:41:31.951Z,113
2022-10-30T06:42:36.263Z,121
2022-10-30T06:43:48.710Z,116
2022-10-30T06:44:53.118Z,112
2022-10-30T06:45:57.698Z,117
2022-10-30T06:47:02.278Z,114
2022-10-30T06:48:06.761Z,118
2022-10-30T06:49:11.447Z,113
2022-10-30T06:50:16.374Z,108
2022-10-30T06:51:20.567Z,116
2022-10-30T06:52:25.071Z,112
2022-10-30T06:53:29.248Z,113
2022-10-30T06:54:33.819Z,107
2022-10-30T06:55:38.358Z,103
2022-10-30T06:56:42.979Z,107
2022-10-30T06:57:47.362Z,98
2022-10-30T06:58:54.467Z,111
2022-10-30T06:59:58.743Z,109
2022-10-30T07:01:03.703Z,103
2022-10-30T07:02:13.115Z,104
2022-10-30T07:03:17.718Z,99
2022-10-30T07:04:22.478Z,100
2022-10-30T07:05:27.033Z,104
2022-10-30T07:06:31.209Z,100
2022-10-30T07:07:39.698Z,104
2022-10-30T07:08:44.045Z,99
2022-10-30T07:09:48.654Z,100
2022-10-30T07:10:53.298Z,100
2022-10-30T07:12:00.361Z,108
2022-10-30T07:13:02.664Z,102
2022-10-30T07:14:06.846Z,97
2022-10-30T07:15:11.495Z,92
2022-10-30T07:16:16.242Z,99
2022-10-30T07:17:20.744Z,94
2022-10-30T07:18:25.567Z,105
2022-10-30T07:19:29.962Z,105
2022-10-30T07:20:36.478Z,97
2022-10-30T07:21:40.941Z,109
2022-10-30T07:22:45.675Z,108
2022-10-30T07:23:50.187Z,104
2022-10-30T07:24:54.642Z,98
2022-10-30T07:26:03.650Z,100
2022-10-30T07:27:04.910Z,104
2022-10-30T07:28:09.414Z,99
2022-10-30T07:29:13.458Z,108
2022-10-30T07:30:17.765Z,99
2022-10-30T07:31:28.896Z,98
2022-10-30T07:32:27.773Z,92
2022-10-30T07:33:32.522Z,97
2022-10-30T07:34:37.062Z,92
2022-10-30T07:35:41.596Z,89
2022-10-30T07:36:47.454Z,91
2022-10-30T07:37:51.766Z,92
2022-10-30T07:38:56.315Z,98
2022-10-30T07:40:00.830Z,94
2022-10-30T07:41:05.618Z,99
2022-10-30T07:42:12.482Z,95
2022-10-30T07:43:16.804Z,83
2022-10-30T07:44:21.407Z,92
2022-10-30T07:45:26.041Z,86
2022-10-30T07:46:30.801Z,87
2022-10-30T07:47:35.098Z,80
2022-10-30T07:48:42.174Z,88
2022-10-30T07:49:46.734Z,79
2022-10-30T07:50:50.880Z,88
2022-10-30T07:51:55.398Z,89
2022-10-30T07:53:00.016Z,89
2022-10-30T07:54:04.579Z,82
2022-10-30T07:55:08.690Z,86
2022-10-30T07:56:13.309Z,79
2022-10-30T07:57:18.009Z,78
2022-10-30T07:58:22.498Z,78
2022-10-30T07:59:27.121Z,80
2022-10-30T08:00:31.625Z,76
2022-10-30T08:01:36.134Z,76
2022-10-30T08:02:40.436Z,74
2022-10-30T08:03:44.330Z,73
2022-10-30T08:04:48.429Z,74
2022-10-30T08:05:52.493Z,71
2022-10-30T08:06:56.713Z,73
2022-10-30T08:08:01.649Z,70
2022-10-30T08:09:06.542Z,72
2022-10-30T08:10:10.875Z,67
2022-10-30T08:11:15.039Z,72
2022-10-30T08:12:19.630Z,65
2022-10-30T08:13:24.165Z,68
2022-10-30T08:14:28.810Z,64
2022-10-30T08:15:33.451Z,64
2022-10-30T08:16:38.437Z,62
2022-10-30T08:17:43.017Z,62
2022-10-30T08:18:47.654Z,68
2022-10-30T08:19:52.188Z,58
2022-10-30T08:20:56.877Z,59
2022-10-30T08:22:01.318Z,59
2022-10-30T08:23:05.614Z,60
2022-10-30T08:24:09.950Z,55
2022-10-30T08:25:14.266Z,59
2022-10-30T08:26:18.739Z,60
2022-10-30T08:27:23.502Z,57
2022-10-30T08:28:30.026Z,49
2022-10-30T08:29:32.470Z,55
2022-10-30T08:30:37.311Z,50
2022-10-30T08:31:41.666Z,55
2022-10-30T08:32:46.205Z,51
2022-10-30T08:33:50.902Z,54
2022-10-30T08:34:55.349Z,51
2022-10-30T08:36:00.038Z,52
2022-10-30T08:37:04.648Z,51
2022-10-30T08:38:09.210Z,43
2022-10-30T08:39:13.895Z,37
2022-10-30T08:40:18.344Z,36
2022-10-30T08:41:22.966Z,38
2022-10-30T08:42:27.557Z,29
2022-10-30T08:43:31.990Z,34
2022-10-30T08:44:36.148Z,33
2022-10-30T08:45:40.790Z,30
2022-10-30T08:46:45.272Z,30
2022-10-30T08:47:49.870Z,26
2022-10-30T08:48:56.882Z,28
2022-10-30T08:50:01.014Z,25
2022-10-30T08:51:05.677Z,36
2022-10-30T08:52:10.165Z,26
2022-10-30T08:53:14.409Z,37
2022-10-30T08:54:18.902Z,26
2022-10-30T08:55:23.585Z,28
2022-10-30T08:56:28.129Z,40
2022-10-30T08:57:32.733Z,38
2022-10-30T08:58:37.163Z,33
2022-10-30T08:59:41.757Z,33
2022-10-30T09:00:45.838Z,25
2022-10-30T09:01:50.596Z,25
2022-10-30T09:02:55.013Z,25
2022-10-30T09:03:59.064Z,30
2022-10-30T09:05:03.593Z,33
2022-10-30T09:06:08.457Z,30
2022-10-30T09:07:13.087Z,30
2022-10-30T09:08:17.441Z,31
2022-10-30T09:09:22.037Z,26
2022-10-30T09:10:26.657Z,29
2022-10-30T09:11:31.204Z,30
2022-10-30T09:12:35.325Z,26
2022-10-30T09:13:39.926Z,26
2022-10-30T09:14:44.374Z,25
2022-10-30T09:15:48.988Z,36
2022-10-30T09:16:53.517Z,25
2022-10-30T09:17:57.891Z,27
2022-10-30T09:19:02.261Z,25
2022-10-30T09:20:06.810Z,32
2022-10-30T09:21:11.418Z,26
2022-10-30T09:22:16.053Z,29
2022-10-30T09:23:20.534Z,30
2022-10-30T09:24:24.658Z,33
2022-10-30T09:25:29.253Z,35
2022-10-30T09:26:33.796Z,36
2022-10-30T09:27:38.365Z,27
2022-10-30T09:28:42.474Z,30
2022-10-30T09:29:47.165Z,29
2022-10-30T09:30:51.763Z,36
2022-10-30T09:31:56.112Z,35
2022-10-30T09:33:00.522Z,34
2022-10-30T09:34:04.537Z,30
2022-10-30T09:35:09.233Z,31
2022-10-30T09:36:15.627Z,26
2022-10-30T09:37:17.670Z,25
2022-10-30T09:38:22.272Z,27
2022-10-30T09:39:26.776Z,29
2022-10-30T09:40:30.962Z,25
2022-10-30T09:41:48.516Z,29
2022-10-30T09:43:00.381Z,36
2022-10-30T09:44:10.038Z,26
2022-10-30T09:45:28.448Z,33
2022-10-30T09:46:26.989Z,25
2022-10-30T09:47:39.132Z,32
2022-10-30T09:48:53.869Z,25
2022-10-30T09:50:03.546Z,34
2022-10-30T09:51:08.114Z,26
2022-10-30T09:52:22.937Z,25
2022-10-30T09:53:35.123Z,27
2022-10-30T09:54:49.814Z,25
2022-10-30T09:56:04.506Z,34
2022-10-30T09:57:17.043Z,34
2022-10-30T09:58:26.396Z,27
2022-10-30T09:59:41.257Z,25
2022-10-30T10:00:51.017Z,25
2022-10-30T10:01:55.608Z,27
2022-10-30T10:03:08.065Z,28
2022-10-30T10:04:15.439Z,33
2022-10-30T10:05:19.995Z,34
2022-10-30T10:06:29.549Z,34
2022-10-30T10:07:34.273Z,34
2022-10-30T10:08:38.704Z,34
2022-10-30T10:09:43.291Z,27
2022-10-30T10:10:47.752Z,29
2022-10-30T10:11:54.869Z,25
2022-10-30T10:13:02.160Z,39
2022-10-30T10:14:06.585Z,33
2022-10-30T10:15:13.192Z,25
2022-10-30T10:16:20.595Z,38
2022-10-30T10:17:24.977Z,42
2022-10-30T10:18:29.711Z,33
2022-10-30T10:19:34.144Z,38
2022-10-30T10:20:43.826Z,52
2022-10-30T10:21:48.548Z,51
2022-10-30T10:22:55.530Z,46
2022-10-30T10:23:59.553Z,25
2022-10-30T10:25:04.070Z,43
2022-10-30T10:26:08.789Z,42
2022-10-30T10:27:13.313Z,39
2022-10-30T10:28:17.408Z,29
2022-10-30T10:29:29.658Z,47
2022-10-30T10:30:39.392Z,39
2022-10-30T10:31:43.970Z,25
2022-10-30T10:32:53.505Z,30
2022-10-30T10:34:08.233Z,28
2022-10-30T10:35:15.454Z,25
2022-10-30T10:36:25.142Z,37
2022-10-30T10:37:34.756Z,29
2022-10-30T10:38:47.515Z,28
2022-10-30T10:40:02.269Z,44
2022-10-30T10:41:11.749Z,29
2022-10-30T10:42:24.142Z,26
2022-10-30T10:43:31.219Z,25
2022-10-30T10:44:46.054Z,37
2022-10-30T10:45:50.582Z,40
2022-10-30T10:47:04.339Z,36
2022-10-30T10:48:09.922Z,52
2022-10-30T10:49:20.128Z,49
2022-10-30T10:50:29.784Z,33
2022-10-30T10:51:39.469Z,27
2022-10-30T10:52:44.117Z,42
2022-10-30T10:53:53.741Z,39
2022-10-30T10:55:00.805Z,30
2022-10-30T10:56:07.877Z,36
2022-10-30T10:57:12.461Z,27
2022-10-30T10:58:27.600Z,26
2022-10-30T10:59:31.919Z,26
2022-10-30T11:00:42.024Z,28
2022-10-30T11:01:46.259Z,28
2022-10-30T11:02:53.654Z,46
2022-10-30T11:03:58.590Z,25
2022-10-30T11:05:13.124Z,30
2022-10-30T11:06:25.856Z,30
2022-10-30T11:07:33.171Z,33
2022-10-30T11:08:37.518Z,29
2022-10-30T11:09:42.185Z,32
2022-10-30T11:10:46.661Z,25
2022-10-30T11:11:50.785Z,35
2022-10-30T11:12:55.528Z,33
2022-10-30T11:13:59.856Z,49
2022-10-30T11:15:03.930Z,35
2022-10-30T11:16:13.756Z,25
2022-10-30T11:17:25.924Z,44
2022-10-30T11:18:30.560Z,29
2022-10-30T11:19:35.012Z,25
2022-10-30T11:20:39.876Z,29
2022-10-30T11:21:49.458Z,27
2022-10-30T11:22:54.128Z,37
2022-10-30T11:23:58.611Z,26
2022-10-30T11:25:03.040Z,25
2022-10-30T11:26:17.839Z,32
2022-10-30T11:27:22.086Z,30
2022-10-30T11:28:30.014Z,33
2022-10-30T11:29:39.319Z,27
2022-10-30T11:30:43.355Z,33
2022-10-30T11:31:47.490Z,34
2022-10-30T11:32:59.990Z,27
2022-10-30T11:34:04.386Z,25
2022-10-30T11:35:13.954Z,34
2022-10-30T11:36:18.635Z,32
2022-10-30T11:37:23.365Z,25
2022-10-30T11:38:30.930Z,27
2022-10-30T11:39:35.686Z,27
2022-10-30T11:40:40.079Z,31
2022-10-30T11:41:49.662Z,32
2022-10-30T11:42:57.234Z,37
2022-10-30T11:44:01.338Z,39
2022-10-30T11:45:06.114Z,45
2022-10-30T11:46:15.554Z,31
2022-10-30T11:47:20.159Z,39
2022-10-30T11:48:29.748Z,57
2022-10-30T11:49:34.774Z,47
2022-10-30T11:50:41.763Z,56
2022-10-30T11:51:46.161Z,56
2022-10-30T11:52:50.858Z,58
2022-10-30T11:53:55.289Z,50
2022-10-30T11:54:59.869Z,48
2022-10-30T11:56:04.524Z,44
2022-10-30T11:57:11.654Z,42
2022-10-30T11:58:21.818Z,39
2022-10-30T11:59:29.398Z,41
2022-10-30T12:00:33.877Z,39
2022-10-30T12:01:38.495Z,37
2022-10-30T12:02:42.615Z,36
2022-10-30T12:03:47.361Z,33
2022-10-30T12:04:52.045Z,25
2022-10-30T12:06:01.482Z,29
2022-10-30T12:07:11.738Z,27
2022-10-30T12:08:23.841Z,37
2022-10-30T12:09:28.386Z,28
2022-10-30T12:10:32.924Z,39
2022-10-30T12:11:43.723Z,31
2022-10-30T12:12:48.273Z,40
2022-10-30T12:13:52.846Z,41
2022-10-30T12:14:57.406Z,34
2022-10-30T12:16:12.401Z,43
2022-10-30T12:17:16.730Z,29
2022-10-30T12:18:21.488Z,25
2022-10-30T12:19:28.714Z,25
2022-10-30T12:20:33.097Z,33
2022-10-30T12:21:37.693Z,29
2022-10-30T12:22:42.322Z,33
2022-10-30T12:23:46.797Z,34
2022-10-30T12:24:56.579Z,36
2022-10-30T12:26:00.981Z,47
2022-10-30T12:27:10.798Z,34
2022-10-30T12:28:15.254Z,29
2022-10-30T12:29:36.649Z,32
2022-10-30T12:30:42.306Z,25
2022-10-30T12:31:54.473Z,54
2022-10-30T12:32:58.926Z,49
2022-10-30T12:34:08.260Z,29
2022-10-30T12:35:22.966Z,40
2022-10-30T12:36:37.701Z,27
2022-10-30T12:37:41.805Z,43
2022-10-30T12:38:45.831Z,32
2022-10-30T12:39:52.986Z,44
2022-10-30T12:41:02.712Z,37
2022-10-30T12:42:10.242Z,36
2022-10-30T12:43:14.364Z,35
2022-10-30T12:44:18.878Z,33
2022-10-30T12:45:23.209Z,27
2022-10-30T12:46:30.820Z,28
2022-10-30T12:47:35.241Z,29
2022-10-30T12:48:42.806Z,39
2022-10-30T12:49:52.553Z,34
2022-10-30T12:51:02.251Z,42
2022-10-30T12:52:16.907Z,53
2022-10-30T12:53:26.534Z,36
2022-10-30T12:54:33.625Z,35
2022-10-30T12:55:40.881Z,44
2022-10-30T12:56:45.614Z,37
2022-10-30T12:57:50.051Z,35
2022-10-30T12:59:02.253Z,34
2022-10-30T13:00:16.956Z,48
2022-10-30T13:01:21.610Z,37
2022-10-30T13:02:28.648Z,50
2022-10-30T13:03:43.462Z,40
2022-10-30T13:04:58.277Z,47
2022-10-30T13:06:02.728Z,36
2022-10-30T13:07:09.849Z,32
2022-10-30T13:08:22.568Z,34
2022-10-30T13:09:27.117Z,47
2022-10-30T13:10:36.790Z,38
2022-10-30T13:11:43.934Z,51
2022-10-30T13:12:48.106Z,40
2022-10-30T13:13:55.306Z,41
2022-10-30T13:14:59.799Z,40
2022-10-30T13:16:03.874Z,42
2022-10-30T13:17:08.426Z,47
2022-10-30T13:18:12.718Z,53
2022-10-30T13:19:20.933Z,57
2022-10-30T13:20:29.183Z,41
2022-10-30T13:21:34.041Z,47
2022-10-30T13:22:44.353Z,47
2022-10-30T13:23:49.533Z,58
2022-10-30T13:25:00.604Z,60
2022-10-30T13:26:13.001Z,63
2022-10-30T13:27:20.966Z,71
2022-10-30T13:28:31.081Z,66
2022-10-30T13:29:46.033Z,73
2022-10-30T13:30:56.624Z,73
2022-10-30T13:32:09.414Z,80
2022-10-30T13:33:19.996Z,86
2022-10-30T13:34:25.551Z,100
2022-10-30T13:35:33.570Z,81
2022-10-30T13:36:48.280Z,92
2022-10-30T13:38:01.258Z,95
2022-10-30T13:39:15.541Z,92
2022-10-30T13:40:20.052Z,87
2022-10-30T13:41:26.738Z,97
2022-10-30T13:42:33.877Z,88
2022-10-30T13:43:43.646Z,79
2022-10-30T13:44:56.293Z,96
2022-10-30T13:46:11.098Z,90
2022-10-30T13:47:18.725Z,102
2022-10-30T13:48:30.855Z,106
2022-10-30T13:49:40.514Z,103
2022-10-30T13:50:55.373Z,107
2022-10-30T13:52:09.977Z,115
2022-10-30T13:53:17.227Z,114
2022-10-30T13:54:21.869Z,120
2022-10-30T13:55:35.060Z,114
2022-10-30T13:56:40.413Z,117
2022-10-30T13:57:44.865Z,118
2022-10-30T13:58:57.091Z,116
2022-10-30T14:00:09.346Z,112
2022-10-30T14:01:19.537Z,126
2022-10-30T14:02:29.268Z,116
2022-10-30T14:03:43.862Z,111
2022-10-30T14:04:58.450Z,112
2022-10-30T14:06:05.609Z,118
2022-10-30T14:07:15.476Z,109
2022-10-30T14:08:25.079Z,113
2022-10-30T14:09:34.726Z,108
2022-10-30T14:10:41.817Z,122
2022-10-30T14:11:48.923Z,116
2022-10-30T14:12:56.372Z,120
2022-10-30T14:14:00.745Z,116
2022-10-30T14:15:04.874Z,112
2022-10-30T14:16:09.335Z,99
2022-10-30T14:17:24.169Z,131
2022-10-30T14:18:28.657Z,128
2022-10-30T14:19:38.970Z,128
2022-10-30T14:20:53.694Z,121
2022-10-30T14:21:58.240Z,122
2022-10-30T14:23:03.050Z,128
2022-10-30T14:24:12.950Z,119
2022-10-30T14:25:27.534Z,123
2022-10-30T14:26:31.744Z,121
2022-10-30T14:27:35.969Z,120
2022-10-30T14:28:40.569Z,124
2022-10-30T14:29:45.153Z,118
2022-10-30T14:30:49.598Z,114
2022-10-30T14:32:04.588Z,111
2022-10-30T14:33:14.148Z,126
2022-10-30T14:34:28.792Z,119
2022-10-30T14:35:38.473Z,121
2022-10-30T14:36:42.616Z,119
2022-10-30T14:37:47.314Z,129
2022-10-30T14:38:51.838Z,130
2022-10-30T14:40:01.695Z,137
2022-10-30T14:41:16.417Z,135
2022-10-30T14:42:23.433Z,132
2022-10-30T14:43:33.555Z,127
2022-10-30T14:44:43.330Z,123
2022-10-30T14:45:56.304Z,120
2022-10-30T14:47:01.601Z,122
2022-10-30T14:48:12.664Z,116
2022-10-30T14:49:16.738Z,129
2022-10-30T14:50:26.554Z,124
2022-10-30T14:51:37.197Z,112
2022-10-30T14:52:41.857Z,113
2022-10-30T14:53:56.565Z,118
2022-10-30T14:55:08.757Z,119
2022-10-30T14:56:23.432Z,118
2022-10-30T14:57:38.120Z,112
2022-10-30T14:58:47.414Z,112
2022-10-30T15:00:02.314Z,120
2022-10-30T15:01:17.085Z,115
2022-10-30T15:02:29.103Z,121
2022-10-30T15:03:33.249Z,115
2022-10-30T15:04:43.309Z,120
2022-10-30T15:05:52.985Z,124
2022-10-30T15:07:02.725Z,114
2022-10-30T15:08:10.505Z,126
2022-10-30T15:09:19.825Z,121
2022-10-30T15:10:29.517Z,123
2022-10-30T15:11:34.211Z,124
2022-10-30T15:12:43.972Z,118
2022-10-30T15:13:50.889Z,125
2022-10-30T15:14:57.638Z,119
2022-10-30T15:16:02.169Z,123
2022-10-30T15:17:06.624Z,118
2022-10-30T15:18:15.705Z,115
2022-10-30T15:19:18.317Z,118
2022-10-30T15:20:22.522Z,115
2022-10-30T15:21:27.090Z,121
2022-10-30T15:22:31.153Z,125
2022-10-30T15:23:35.303Z,124
2022-10-30T15:24:39.876Z,119
2022-10-30T15:25:44.341Z,112
2022-10-30T15:26:48.569Z,116
2022-10-30T15:27:56.081Z,124
2022-10-30T15:29:00.176Z,117
2022-10-30T15:30:04.308Z,114
2022-10-30T15:31:09.349Z,114
2022-10-30T15:32:19.025Z,120
2022-10-30T15:33:23.664Z,120
2022-10-30T15:34:28.616Z,129
2022-10-30T15:35:33.465Z,123
2022-10-30T15:36:38.677Z,127
2022-10-30T15:37:43.533Z,121
2022-10-30T15:38:58.608Z,121